createdAt,value
2022-11-20T00:01:34.696Z,34.03
2022-11-20T00:04:02.907Z,31.07
2022-11-20T00:06:32.236Z,29.63
2022-11-20T00:09:02.372Z,30.33
2022-11-20T00:11:31.715Z,29.57
2022-11-20T00:14:02.252Z,31.47
2022-11-20T00:16:33.531Z,31.93
2022-11-20T00:19:01.549Z,34.17
2022-11-20T00:21:31.825Z,31.63
2022-11-20T00:24:01.427Z,32.63
2022-11-20T00:26:30.483Z,32.03
2022-11-20T00:29:00.147Z,33.70
2022-11-20T00:31:31.752Z,35.67
2022-11-20T00:34:01.450Z,32.47
2022-11-20T00:36:31.181Z,32.50
2022-11-20T00:39:01.225Z,30.23
2022-11-20T00:41:30.822Z,31.43
2022-11-20T00:44:02.284Z,33.17
2022-11-20T00:46:30.726Z,33.37
2022-11-20T00:48:58.900Z,32.23
2022-11-20T00:51:28.421Z,35.63
2022-11-20T00:53:57.795Z,32.67
2022-11-20T00:56:27.634Z,36.13
2022-11-20T00:58:55.661Z,33.77
2022-11-20T01:01:26.119Z,32.17
2022-11-20T01:03:56.116Z,33.97
2022-11-20T01:06:25.937Z,33.27
2022-11-20T01:08:56.844Z,36.83
2022-11-20T01:11:30.795Z,34.27
2022-11-20T01:14:00.326Z,36.67
2022-11-20T01:16:33.426Z,37.07
2022-11-20T01:19:03.567Z,34.67
2022-11-20T01:21:33.366Z,35.20
2022-11-20T01:24:07.997Z,37.93
2022-11-20T01:26:48.072Z,34.80
2022-11-20T01:29:19.247Z,41.10
2022-11-20T01:31:47.628Z,39.33
2022-11-20T01:34:17.984Z,36.47
2022-11-20T01:36:46.969Z,43.43
2022-11-20T01:39:17.203Z,41.13
2022-11-20T01:42:09.708Z,40.70
2022-11-20T01:44:54.745Z,40.13
2022-11-20T01:47:31.574Z,39.27
2022-11-20T01:50:03.527Z,38.93
2022-11-20T01:52:35.671Z,38.33
2022-11-20T01:55:08.893Z,39.27
2022-11-20T01:57:43.068Z,38.87
2022-11-20T02:00:14.766Z,40.63
2022-11-20T02:02:45.526Z,37.17
2022-11-20T02:05:20.519Z,36.20
2022-11-20T02:07:49.531Z,38.50
2022-11-20T02:10:17.717Z,39.07
2022-11-20T02:13:04.521Z,42.80
2022-11-20T02:15:34.226Z,42.63
2022-11-20T02:18:02.389Z,41.03
2022-11-20T02:20:30.515Z,40.63
2022-11-20T02:23:01.963Z,41.07
2022-11-20T02:25:34.245Z,37.00
2022-11-20T02:28:02.185Z,41.23
2022-11-20T02:30:30.200Z,39.60
2022-11-20T02:32:59.411Z,37.90
2022-11-20T02:35:45.746Z,38.83
2022-11-20T02:38:16.201Z,41.53
2022-11-20T02:40:45.570Z,41.10
2022-11-20T02:43:13.570Z,40.40
2022-11-20T02:45:41.563Z,47.37
2022-11-20T02:48:09.786Z,41.63
2022-11-20T02:50:40.125Z,42.17
2022-11-20T02:53:08.577Z,42.67
2022-11-20T02:55:37.245Z,42.87
2022-11-20T02:58:06.500Z,39.70
2022-11-20T03:00:34.645Z,40.87
2022-11-20T03:03:03.712Z,42.90
2022-11-20T03:05:31.690Z,45.03
2022-11-20T03:08:00.163Z,44.23
2022-11-20T03:10:32.648Z,47.23
2022-11-20T03:13:00.709Z,45.60
2022-11-20T03:15:33.241Z,46.67
2022-11-20T03:18:01.166Z,52.20
2022-11-20T03:20:29.086Z,42.03
2022-11-20T03:22:57.050Z,43.20
2022-11-20T03:25:25.085Z,43.60
2022-11-20T03:27:53.236Z,42.87
2022-11-20T03:30:21.302Z,46.87
2022-11-20T03:32:50.965Z,42.13
2022-11-20T03:35:18.930Z,41.20
2022-11-20T03:37:47.068Z,44.77
2022-11-20T03:40:15.224Z,44.50
2022-11-20T03:42:49.265Z,44.63
2022-11-20T03:45:19.369Z,48.17
2022-11-20T03:47:52.568Z,42.23
2022-11-20T03:50:22.373Z,47.50
2022-11-20T03:52:50.323Z,42.83
2022-11-20T03:55:18.311Z,45.70
2022-11-20T03:57:46.247Z,45.83
2022-11-20T04:00:15.914Z,46.40
2022-11-20T04:02:43.795Z,47.03
2022-11-20T04:05:13.139Z,43.37
2022-11-20T04:07:41.256Z,45.93
2022-11-20T04:10:09.952Z,44.27
2022-11-20T04:12:38.073Z,43.27
2022-11-20T04:15:06.560Z,45.83
2022-11-20T04:17:36.334Z,48.90
2022-11-20T04:20:05.540Z,47.73
2022-11-20T04:22:34.733Z,50.63
2022-11-20T04:25:02.667Z,42.37
2022-11-20T04:27:32.596Z,48.93
2022-11-20T04:30:00.581Z,43.53
2022-11-20T04:32:28.507Z,50.23
2022-11-20T04:34:56.422Z,47.33
2022-11-20T04:37:24.333Z,50.57
2022-11-20T04:39:53.622Z,48.17
2022-11-20T04:42:30.431Z,53.00
2022-11-20T04:44:58.679Z,45.33
2022-11-20T04:47:26.735Z,47.83
2022-11-20T04:49:54.749Z,46.60
2022-11-20T04:52:22.723Z,51.60
2022-11-20T04:54:54.392Z,48.93
2022-11-20T04:57:23.812Z,50.63
2022-11-20T04:59:52.015Z,50.37
2022-11-20T05:02:20.197Z,47.30
2022-11-20T05:04:48.182Z,51.53
2022-11-20T05:07:16.246Z,50.07
2022-11-20T05:09:44.260Z,45.00
2022-11-20T05:12:12.462Z,50.60
2022-11-20T05:14:41.716Z,48.93
2022-11-20T05:17:12.513Z,42.60
2022-11-20T05:19:42.150Z,44.20
2022-11-20T05:22:14.808Z,46.27
2022-11-20T05:24:42.792Z,45.17
2022-11-20T05:27:13.515Z,45.90
2022-11-20T05:29:42.789Z,48.03
2022-11-20T05:32:10.709Z,46.87
2022-11-20T05:34:38.698Z,49.63
2022-11-20T05:37:06.689Z,49.47
2022-11-20T05:39:34.628Z,53.20
2022-11-20T05:42:20.292Z,49.87
2022-11-20T05:44:49.562Z,50.30
2022-11-20T05:47:17.546Z,54.50
2022-11-20T05:49:45.445Z,53.93
2022-11-20T05:52:13.508Z,47.40
2022-11-20T05:54:43.911Z,48.50
2022-11-20T05:57:14.700Z,50.57
2022-11-20T05:59:42.773Z,51.03
2022-11-20T06:02:19.171Z,48.87
2022-11-20T06:04:47.096Z,63.00
2022-11-20T06:07:14.995Z,60.73
2022-11-20T06:09:42.989Z,58.93
2022-11-20T06:12:11.174Z,54.30
2022-11-20T06:14:39.133Z,59.67
2022-11-20T06:17:09.483Z,56.43
2022-11-20T06:19:41.789Z,62.33
2022-11-20T06:22:09.716Z,59.00
2022-11-20T06:24:44.221Z,65.97
2022-11-20T06:27:12.373Z,63.23
2022-11-20T06:29:40.247Z,70.50
2022-11-20T06:32:11.264Z,66.13
2022-11-20T06:34:41.059Z,68.70
2022-11-20T06:37:09.063Z,69.23
2022-11-20T06:39:36.972Z,70.83
2022-11-20T06:42:07.331Z,66.70
2022-11-20T06:44:38.420Z,61.93
2022-11-20T06:47:06.495Z,64.60
2022-11-20T06:49:35.321Z,65.80
2022-11-20T06:52:07.431Z,62.40
2022-11-20T06:54:36.176Z,61.10
2022-11-20T06:57:04.148Z,60.70
2022-11-20T06:59:32.076Z,58.07
2022-11-20T07:02:02.378Z,57.23
2022-11-20T07:04:30.414Z,67.90
2022-11-20T07:06:58.335Z,60.47
2022-11-20T07:09:27.767Z,62.27
2022-11-20T07:11:55.837Z,61.23
2022-11-20T07:14:23.749Z,64.50
2022-11-20T07:16:51.626Z,65.93
2022-11-20T07:19:19.715Z,59.00
2022-11-20T07:21:47.926Z,57.23
2022-11-20T07:24:15.848Z,61.23
2022-11-20T07:26:48.391Z,63.60
2022-11-20T07:29:18.535Z,63.07
2022-11-20T07:31:46.643Z,61.50
2022-11-20T07:34:14.572Z,60.13
2022-11-20T07:36:42.471Z,58.97
2022-11-20T07:39:10.548Z,62.00
2022-11-20T07:41:38.607Z,59.53
2022-11-20T07:44:07.953Z,63.47
2022-11-20T07:46:35.815Z,66.37
2022-11-20T07:49:03.710Z,60.20
2022-11-20T07:51:31.725Z,59.37
2022-11-20T07:53:59.890Z,63.90
2022-11-20T07:56:32.280Z,55.37
2022-11-20T07:59:01.591Z,65.50
2022-11-20T08:01:31.164Z,55.57
2022-11-20T08:03:59.245Z,66.13
2022-11-20T08:06:27.227Z,56.13
2022-11-20T08:08:55.148Z,63.00
2022-11-20T08:11:40.689Z,61.03
2022-11-20T08:14:14.783Z,61.00
2022-11-20T08:16:45.737Z,59.97
2022-11-20T08:19:15.289Z,58.23
2022-11-20T08:21:43.316Z,58.13
2022-11-20T08:24:11.938Z,59.20
2022-11-20T08:26:41.441Z,53.10
2022-11-20T08:29:09.624Z,54.13
2022-11-20T08:31:37.744Z,58.67
2022-11-20T08:34:09.395Z,55.50
2022-11-20T08:36:38.433Z,59.97
2022-11-20T08:39:06.384Z,52.37
2022-11-20T08:41:34.390Z,61.97
2022-11-20T08:44:08.660Z,53.77
2022-11-20T08:46:38.767Z,54.83
2022-11-20T08:49:09.473Z,50.80
2022-11-20T08:51:37.855Z,53.07
2022-11-20T08:54:09.578Z,48.50
2022-11-20T08:56:37.954Z,55.73
2022-11-20T08:59:23.359Z,51.53
2022-11-20T09:01:55.935Z,55.43
2022-11-20T09:04:25.178Z,55.20
2022-11-20T09:06:55.747Z,54.07
2022-11-20T09:09:23.925Z,57.63
2022-11-20T09:11:52.005Z,48.80
2022-11-20T09:14:19.932Z,54.07
2022-11-20T09:16:48.246Z,56.17
2022-11-20T09:22:05.641Z,52.93
2022-11-20T09:24:35.921Z,52.73
2022-11-20T09:27:05.912Z,52.53
2022-11-20T09:29:34.109Z,51.30
2022-11-20T09:32:02.137Z,49.70
2022-11-20T09:34:30.288Z,50.43
2022-11-20T09:37:01.551Z,49.50
2022-11-20T09:39:33.894Z,44.63
2022-11-20T09:42:28.514Z,47.50
2022-11-20T09:45:17.892Z,45.30
2022-11-20T09:48:00.732Z,45.37
2022-11-20T09:50:35.223Z,50.40
2022-11-20T09:53:24.674Z,51.33
2022-11-20T09:56:05.011Z,52.07
2022-11-20T09:58:37.328Z,46.87
2022-11-20T10:01:12.750Z,55.93
2022-11-20T10:03:48.315Z,49.27
2022-11-20T10:06:20.295Z,53.47
2022-11-20T10:08:53.773Z,50.97
2022-11-20T10:11:33.879Z,52.30
2022-11-20T10:14:17.061Z,49.63
2022-11-20T10:16:55.082Z,53.03
2022-11-20T10:19:43.905Z,54.07
2022-11-20T10:22:20.585Z,51.53
2022-11-20T10:24:58.320Z,56.20
2022-11-20T10:27:56.477Z,56.97
2022-11-20T10:30:26.318Z,53.57
2022-11-20T10:33:00.904Z,51.53
2022-11-20T10:35:37.185Z,51.90
2022-11-20T10:38:11.358Z,47.77
2022-11-20T10:40:43.248Z,52.33
2022-11-20T10:43:15.600Z,50.87
2022-11-20T10:45:52.344Z,52.50
2022-11-20T10:48:26.330Z,109.23
2022-11-20T10:51:17.573Z,59.07
2022-11-20T10:53:56.559Z,55.60
2022-11-20T10:56:29.959Z,49.93
2022-11-20T10:59:20.647Z,46.10
2022-11-20T11:01:54.719Z,43.83
2022-11-20T11:04:40.284Z,43.10
2022-11-20T11:07:14.419Z,43.63
2022-11-20T11:09:46.507Z,38.80
2022-11-20T11:12:15.306Z,38.87
2022-11-20T11:14:50.349Z,43.27
2022-11-20T11:17:29.082Z,38.60
2022-11-20T11:20:08.438Z,39.70
2022-11-20T11:22:46.104Z,40.57
2022-11-20T11:25:25.715Z,36.97
2022-11-20T11:27:56.126Z,44.90
2022-11-20T11:30:26.956Z,39.17
2022-11-20T11:33:07.353Z,35.47
2022-11-20T11:35:49.913Z,37.83
2022-11-20T11:38:24.038Z,36.00
2022-11-20T11:40:57.263Z,36.17
2022-11-20T11:43:46.078Z,33.50
2022-11-20T11:46:32.118Z,34.97
2022-11-20T11:49:03.841Z,33.47
2022-11-20T11:51:38.428Z,33.17
2022-11-20T11:54:16.299Z,34.97
2022-11-20T11:56:44.894Z,35.50
2022-11-20T11:59:29.065Z,36.97
2022-11-20T12:02:04.040Z,37.43
2022-11-20T12:04:45.775Z,34.23
2022-11-20T12:07:45.553Z,31.90
2022-11-20T12:10:18.821Z,30.03
2022-11-20T12:12:52.048Z,30.97
2022-11-20T12:15:28.406Z,29.47
2022-11-20T12:17:57.810Z,35.30
2022-11-20T12:20:30.906Z,37.53
2022-11-20T12:23:05.677Z,33.53
2022-11-20T12:25:36.618Z,31.13
2022-11-20T12:28:30.136Z,33.73
2022-11-20T12:31:22.046Z,33.13
2022-11-20T12:34:05.905Z,36.13
2022-11-20T12:36:42.975Z,34.23
2022-11-20T12:39:28.396Z,36.57
2022-11-20T12:42:41.935Z,33.30
2022-11-20T12:45:28.951Z,33.83
2022-11-20T12:48:21.236Z,36.83
2022-11-20T12:51:17.699Z,35.93
2022-11-20T12:53:54.773Z,34.30
2022-11-20T12:56:32.483Z,32.57
2022-11-20T12:59:20.314Z,33.70
2022-11-20T13:01:52.948Z,35.60
2022-11-20T13:04:51.726Z,31.47
2022-11-20T13:07:23.753Z,34.93
2022-11-20T13:09:53.101Z,34.20
2022-11-20T13:12:27.558Z,35.30
2022-11-20T13:15:04.455Z,34.83
2022-11-20T13:17:39.055Z,33.00
2022-11-20T13:20:14.220Z,31.97
2022-11-20T13:22:48.765Z,29.13
2022-11-20T13:25:26.991Z,30.87
2022-11-20T13:27:55.473Z,29.93
2022-11-20T13:30:25.383Z,30.27
2022-11-20T13:32:56.094Z,27.03
2022-11-20T13:35:33.249Z,28.80
2022-11-20T13:38:10.890Z,29.20
2022-11-20T13:40:41.025Z,30.30
2022-11-20T13:43:24.242Z,31.40
2022-11-20T13:46:01.238Z,28.03
2022-11-20T13:48:33.080Z,29.10
2022-11-20T13:51:17.432Z,27.03
2022-11-20T13:54:07.179Z,30.07
2022-11-20T13:56:49.724Z,26.43
2022-11-20T13:59:31.243Z,27.03
2022-11-20T14:01:59.275Z,25.37
2022-11-20T14:04:31.142Z,25.97
2022-11-20T14:07:00.143Z,28.43
2022-11-20T14:09:32.067Z,23.87
2022-11-20T14:12:00.172Z,28.60
2022-11-20T14:14:29.488Z,25.17
2022-11-20T14:17:08.172Z,25.07
2022-11-20T14:19:38.166Z,24.67
2022-11-20T14:22:19.575Z,24.07
2022-11-20T14:24:49.362Z,26.83
2022-11-20T14:27:19.855Z,28.47
2022-11-20T14:29:49.951Z,28.90
2022-11-20T14:32:19.859Z,30.80
2022-11-20T14:34:51.631Z,29.93
2022-11-20T14:37:23.707Z,26.37
2022-11-20T14:39:59.883Z,29.57
2022-11-20T14:42:29.719Z,30.43
2022-11-20T14:44:59.804Z,32.43
2022-11-20T14:47:29.660Z,38.33
2022-11-20T14:49:59.519Z,46.73
2022-11-20T14:52:29.450Z,26.63
2022-11-20T14:55:00.554Z,32.03
2022-11-20T14:57:29.986Z,30.93
2022-11-20T15:00:21.894Z,34.40
2022-11-20T15:02:51.606Z,41.00
2022-11-20T15:05:21.706Z,28.80
2022-11-20T15:07:52.824Z,35.53
2022-11-20T15:10:27.834Z,31.63
2022-11-20T15:13:01.288Z,29.27
2022-11-20T15:15:34.783Z,32.27
2022-11-20T15:18:04.032Z,29.80
2022-11-20T15:20:35.136Z,30.27
2022-11-20T15:23:03.093Z,29.87
2022-11-20T15:25:32.569Z,32.70
2022-11-20T15:28:00.516Z,29.07
2022-11-20T15:30:28.719Z,29.93
2022-11-20T15:32:56.732Z,32.43
2022-11-20T15:35:24.977Z,29.97
2022-11-20T15:37:53.135Z,28.87
2022-11-20T15:40:20.988Z,27.57
2022-11-20T15:43:12.584Z,30.03
2022-11-20T15:45:43.488Z,30.93
2022-11-20T15:48:14.389Z,36.17
2022-11-20T15:50:51.680Z,31.07
2022-11-20T15:53:19.740Z,30.87
2022-11-20T15:55:47.812Z,38.30
2022-11-20T15:58:18.010Z,32.07
2022-11-20T16:00:46.498Z,30.63
2022-11-20T16:03:15.245Z,35.20
2022-11-20T16:05:43.238Z,31.80
2022-11-20T16:08:12.090Z,29.33
2022-11-20T16:10:40.300Z,30.13
2022-11-20T16:13:32.388Z,29.80
2022-11-20T16:16:06.569Z,35.80
2022-11-20T16:18:34.708Z,30.73
2022-11-20T16:21:02.995Z,35.27
2022-11-20T16:23:31.088Z,36.37
2022-11-20T16:25:58.988Z,36.10
2022-11-20T16:28:30.595Z,38.47
2022-11-20T16:30:58.641Z,39.17
2022-11-20T16:33:27.966Z,33.43
2022-11-20T16:35:55.900Z,33.30
2022-11-20T16:38:23.828Z,37.80
2022-11-20T16:40:51.685Z,37.90
2022-11-20T16:43:19.669Z,31.10
2022-11-20T16:45:47.752Z,42.17
2022-11-20T16:48:17.433Z,31.87
2022-11-20T16:50:51.529Z,31.73
2022-11-20T16:53:19.806Z,41.37
2022-11-20T16:55:48.193Z,33.37
2022-11-20T16:58:16.557Z,61.50
2022-11-20T17:00:50.028Z,36.20
2022-11-20T17:03:20.936Z,40.10
2022-11-20T17:05:50.396Z,39.83
2022-11-20T17:08:18.289Z,33.20
2022-11-20T17:10:46.217Z,36.13
2022-11-20T17:13:20.099Z,35.00
2022-11-20T17:15:48.070Z,37.50
2022-11-20T17:18:15.966Z,36.80
2022-11-20T17:20:43.973Z,38.77
2022-11-20T17:23:14.546Z,36.97
2022-11-20T17:25:45.773Z,48.10
2022-11-20T17:28:17.515Z,38.30
2022-11-20T17:30:50.635Z,39.77
2022-11-20T17:33:18.686Z,36.33
2022-11-20T17:35:46.617Z,37.17
2022-11-20T17:38:17.156Z,37.63
2022-11-20T17:40:46.188Z,43.67
2022-11-20T17:43:14.154Z,39.40
2022-11-20T17:45:42.044Z,41.60
2022-11-20T17:48:10.357Z,40.77
2022-11-20T17:50:38.400Z,38.23
2022-11-20T17:53:07.519Z,40.97
2022-11-20T17:55:55.820Z,41.43
2022-11-20T17:58:24.094Z,43.63
2022-11-20T18:00:52.005Z,36.90
2022-11-20T18:03:19.909Z,41.47
2022-11-20T18:05:47.817Z,42.47
2022-11-20T18:08:15.695Z,50.33
2022-11-20T18:10:45.132Z,41.50
2022-11-20T18:13:15.406Z,41.67
2022-11-20T18:15:43.310Z,43.47
2022-11-20T18:18:11.323Z,46.13
2022-11-20T18:20:41.326Z,46.53
2022-11-20T18:23:10.469Z,47.33
2022-11-20T18:25:38.873Z,41.73
2022-11-20T18:28:08.199Z,42.07
2022-11-20T18:30:49.684Z,42.60
2022-11-20T18:33:18.646Z,39.27
2022-11-20T18:35:56.171Z,36.37
2022-11-20T18:38:26.194Z,31.23
2022-11-20T18:41:03.788Z,22.50
2022-11-20T18:44:00.606Z,22.00
2022-11-20T18:46:29.117Z,19.37
2022-11-20T18:48:57.048Z,19.30
2022-11-20T18:51:24.979Z,15.27
2022-11-20T18:54:12.315Z,10.60
2022-11-20T18:56:43.887Z,7.73
2022-11-20T18:59:15.269Z,6.90
2022-11-20T19:01:43.617Z,5.63
2022-11-20T19:04:15.036Z,10.47
2022-11-20T19:07:08.135Z,5.90
2022-11-20T19:09:38.971Z,6.47
2022-11-20T19:12:11.520Z,5.57
2022-11-20T19:14:48.602Z,6.73
2022-11-20T19:17:17.997Z,6.53
2022-11-20T19:19:46.424Z,6.80
2022-11-20T19:22:14.766Z,4.07
2022-11-20T19:24:53.335Z,4.47
2022-11-20T19:27:24.944Z,4.87
2022-11-20T19:29:57.532Z,5.40
2022-11-20T19:35:15.541Z,3.40
2022-11-20T19:37:45.970Z,6.63
2022-11-20T19:40:26.529Z,6.03
2022-11-20T19:42:58.604Z,5.37
2022-11-20T19:45:28.379Z,2.67
2022-11-20T19:48:08.072Z,3.63
2022-11-20T19:50:36.940Z,4.63
2022-11-20T19:53:41.578Z,2.30
2022-11-20T19:57:06.934Z,4.33
2022-11-20T20:04:09.466Z,3.53
2022-11-20T20:07:40.459Z,2.20
2022-11-20T20:14:58.000Z,2.27
2022-11-20T20:18:47.723Z,4.27
2022-11-20T20:21:53.334Z,2.67
2022-11-20T20:24:21.574Z,6.20
2022-11-20T20:27:32.596Z,4.70
2022-11-20T20:30:01.039Z,3.30
2022-11-20T20:32:29.718Z,3.30
2022-11-20T20:34:57.882Z,3.90
2022-11-20T20:37:26.011Z,3.43
2022-11-20T20:40:03.298Z,2.53
2022-11-20T20:42:33.315Z,6.73
2022-11-20T20:45:11.290Z,7.47
2022-11-20T20:48:00.172Z,6.67
2022-11-20T20:50:48.299Z,9.83
2022-11-20T20:54:40.123Z,5.73
2022-11-20T21:00:37.543Z,4.40
2022-11-20T21:03:05.663Z,6.67
2022-11-20T21:05:33.581Z,4.93
2022-11-20T21:08:19.293Z,4.30
2022-11-20T21:10:47.314Z,3.70
2022-11-20T21:13:15.588Z,4.07
2022-11-20T21:15:48.433Z,4.97
2022-11-20T21:18:19.847Z,5.27
2022-11-20T21:21:06.020Z,3.37
2022-11-20T21:23:34.251Z,7.47
2022-11-20T21:26:03.678Z,5.63
2022-11-20T21:28:33.385Z,5.37
2022-11-20T21:31:07.645Z,5.93
2022-11-20T21:33:40.098Z,9.67
2022-11-20T21:36:25.929Z,5.80
2022-11-20T21:38:55.170Z,5.83
2022-11-20T21:41:23.819Z,4.70
2022-11-20T21:46:54.805Z,4.50
2022-11-20T21:49:26.580Z,5.27
2022-11-20T21:51:54.730Z,3.53
2022-11-20T21:54:25.871Z,4.13
2022-11-20T21:56:54.052Z,4.07
2022-11-20T21:59:22.267Z,4.17
2022-11-20T22:01:50.393Z,4.27
2022-11-20T22:04:20.031Z,5.93
2022-11-20T22:06:48.795Z,7.47
2022-11-20T22:09:18.730Z,6.90
2022-11-20T22:11:47.006Z,9.80
2022-11-20T22:14:24.617Z,9.20
2022-11-20T22:16:54.397Z,9.07
2022-11-20T22:19:25.897Z,9.07
2022-11-20T22:22:01.535Z,7.73
2022-11-20T22:24:32.692Z,5.70
2022-11-20T22:27:00.741Z,8.17
2022-11-20T22:29:28.756Z,9.23
2022-11-20T22:31:56.752Z,8.73
2022-11-20T22:34:26.207Z,9.60
2022-11-20T22:36:55.812Z,8.80
2022-11-20T22:39:23.906Z,13.57
2022-11-20T22:41:51.873Z,13.67
2022-11-20T22:44:22.511Z,18.33
2022-11-20T22:46:50.659Z,11.27
2022-11-20T22:49:18.599Z,11.47
2022-11-20T22:51:47.972Z,11.17
2022-11-20T22:54:17.923Z,7.87
2022-11-20T22:56:46.161Z,8.57
2022-11-20T22:59:17.085Z,10.43
2022-11-20T23:01:44.969Z,6.90
2022-11-20T23:04:13.243Z,6.73
2022-11-20T23:06:41.194Z,11.40
2022-11-20T23:09:12.760Z,10.03
2022-11-20T23:11:40.770Z,12.37
2022-11-20T23:14:13.563Z,17.07
2022-11-20T23:16:41.740Z,11.00
2022-11-20T23:19:11.548Z,12.57
2022-11-20T23:21:41.085Z,9.27
2022-11-20T23:24:11.653Z,9.40
2022-11-20T23:26:41.610Z,12.23
2022-11-20T23:29:12.867Z,18.60
2022-11-20T23:31:40.918Z,10.90
2022-11-20T23:34:08.910Z,16.07
2022-11-20T23:36:36.763Z,11.67
2022-11-20T23:39:04.834Z,8.10
2022-11-20T23:41:34.065Z,9.57
2022-11-20T23:44:03.750Z,10.20
2022-11-20T23:46:33.659Z,4.40
2022-11-20T23:49:01.638Z,7.57
2022-11-20T23:51:32.300Z,8.67
2022-11-20T23:54:04.502Z,10.93
2022-11-20T23:56:34.189Z,6.90
2022-11-20T23:59:02.092Z,8.13
